Time;durP1;ratioP1;P1;durP2;ratioP2;P2;SDS_P1;SDS_P2;PMS_P1;PMS_P2;Temp;Humidity;BMP_temperature;BMP_pressure;BME280_temperature;BME280_humidity;BME280_pressure;Samples;Min_cycle;Max_cycle;Signal;HPM_P1;HPM_P2
2022/06/22 00:00:39;;;;;;;4.00;2.90;;;;;;;11.97;75.15;99578.41;107757;1270;138240;-70
2022/06/22 00:03:12;;;;;;;4.50;3.80;;;;;;;11.97;75.14;99578.92;107856;1270;94693;-70
2022/06/22 00:05:50;;;;;;;4.20;2.80;;;;;;;11.97;75.14;99572.99;107711;1270;138930;-70
2022/06/22 00:08:27;;;;;;;7.30;2.90;;;;;;;11.96;75.11;99576.67;107470;1270;109430;-70
2022/06/22 00:11:04;;;;;;;4.00;3.10;;;;;;;11.96;75.16;99579.29;106239;1270;108938;-70
2022/06/22 00:13:37;;;;;;;3.20;2.80;;;;;;;11.96;75.03;99580.02;107850;1270;94458;-70
2022/06/22 00:16:19;;;;;;;5.40;3.20;;;;;;;11.95;75.12;99582.87;106833;1270;95114;-70
2022/06/22 00:18:53;;;;;;;4.80;2.70;;;;;;;11.93;75.08;99587.28;107727;1270;139655;-70
2022/06/22 00:21:29;;;;;;;4.60;3.40;;;;;;;11.91;74.94;99585.15;107275;1270;107869;-70
2022/06/22 00:24:04;;;;;;;8.70;3.00;;;;;;;11.89;75.08;99591.16;106162;1270;140607;-70
2022/06/22 00:26:47;;;;;;;6.30;3.00;;;;;;;11.88;75.05;99597.33;106811;1270;96504;-70
2022/06/22 00:29:23;;;;;;;6.70;3.20;;;;;;;11.85;75.09;99592.91;106161;1270;140032;-69
2022/06/22 00:32:13;;;;;;;4.90;3.20;;;;;;;11.84;75.11;99590.52;107824;1270;111087;-71
2022/06/22 00:34:45;;;;;;;7.50;3.30;;;;;;;11.81;75.24;99590.81;106743;1270;108976;-70
2022/06/22 00:37:22;;;;;;;5.70;3.50;;;;;;;11.81;75.27;99596.23;106141;1270;138431;-69
2022/06/22 00:39:59;;;;;;;5.20;3.30;;;;;;;11.81;75.33;99605.46;106280;1270;96684;-69
2022/06/22 00:42:42;;;;;;;5.60;3.10;;;;;;;11.80;75.27;99613.18;106182;1270;138145;-70
2022/06/22 00:45:26;;;;;;;5.00;3.30;;;;;;;11.76;75.24;99619.78;106253;1271;110710;-70
2022/06/22 00:48:03;;;;;;;5.90;3.70;;;;;;;11.73;75.41;99614.73;107702;1270;138377;-70
2022/06/22 00:50:42;;;;;;;3.90;3.40;;;;;;;11.72;75.41;99612.67;107848;1270;107800;-70
2022/06/22 00:53:21;;;;;;;5.60;3.40;;;;;;;11.68;75.54;99609.35;107701;1270;138657;-69
2022/06/22 00:55:56;;;;;;;5.70;3.60;;;;;;;11.64;75.55;99616.70;107847;1270;95089;-70
2022/06/22 00:58:35;;;;;;;3.80;3.10;;;;;;;11.61;75.53;99613.15;106700;1270;110194;-69
2022/06/22 01:01:16;;;;;;;9.00;3.40;;;;;;;11.60;75.82;99616.91;107373;1269;139034;-70
2022/06/22 01:03:56;;;;;;;7.50;3.60;;;;;;;11.58;75.91;99616.66;107898;1270;107697;-70
2022/06/22 01:06:37;;;;;;;5.00;3.60;;;;;;;11.57;75.93;99615.09;107720;1268;140572;-70
2022/06/22 01:09:15;;;;;;;4.80;3.50;;;;;;;11.57;75.75;99613.55;107814;1271;94712;-70
2022/06/22 01:14:47;;;;;;;4.90;3.60;;;;;;;11.56;75.99;99613.09;107275;1270;107272;-70
2022/06/22 01:17:28;;;;;;;6.10;3.40;;;;;;;11.55;76.06;99611.20;106248;1270;138574;-70
2022/06/22 01:20:06;;;;;;;4.80;3.90;;;;;;;11.55;75.93;99606.02;106381;1270;96481;-70
2022/06/22 01:22:51;;;;;;;4.80;3.60;;;;;;;11.53;76.06;99601.89;106408;1270;96366;-70
2022/06/22 01:25:54;;;;;;;5.60;4.10;;;;;;;11.51;76.08;99599.52;106195;1270;138162;-71
2022/06/22 01:28:27;;;;;;;5.30;3.60;;;;;;;11.49;76.13;99600.67;106109;1274;108563;-70
2022/06/22 01:31:12;;;;;;;5.50;3.90;;;;;;;11.48;76.27;99600.36;106763;1274;138223;-70
2022/06/22 01:33:49;;;;;;;6.20;3.70;;;;;;;11.46;76.32;99597.48;106160;1274;96497;-70
2022/06/22 01:36:25;;;;;;;5.10;3.70;;;;;;;11.44;76.41;99598.62;105969;1274;139532;-70
2022/06/22 01:38:57;;;;;;;8.20;4.10;;;;;;;11.40;76.41;99599.51;107634;1274;111302;-70
2022/06/22 01:41:38;;;;;;;7.80;3.70;;;;;;;11.37;76.52;99594.61;107497;1274;138953;-70
2022/06/22 01:44:22;;;;;;;5.50;3.90;;;;;;;11.34;76.54;99594.61;106356;1274;107735;-70
2022/06/22 01:47:19;;;;;;;6.20;4.30;;;;;;;11.31;76.64;99592.11;107616;1274;94667;-70
2022/06/22 01:49:58;;;;;;;4.70;3.70;;;;;;;11.28;76.73;99592.77;106232;1274;97139;-72
2022/06/22 01:52:45;;;;;;;4.30;3.60;;;;;;;11.24;76.81;99597.12;106104;1274;111247;-70
2022/06/22 01:55:27;;;;;;;5.50;3.80;;;;;;;11.20;76.84;99604.60;107422;1274;138279;-70
2022/06/22 01:58:09;;;;;;;9.10;4.10;;;;;;;11.16;77.05;99602.02;106107;1276;108722;-70
2022/06/22 02:00:43;;;;;;;6.00;3.80;;;;;;;11.13;77.14;99600.94;105941;1276;138335;-70
2022/06/22 02:03:18;;;;;;;7.20;3.80;;;;;;;11.09;77.39;99601.09;106231;1270;96521;-69
2022/06/22 02:05:59;;;;;;;5.30;3.90;;;;;;;11.07;77.39;99603.27;106157;1270;138581;-71
2022/06/22 02:08:36;;;;;;;7.60;4.30;;;;;;;11.03;77.54;99606.94;106393;1270;107285;-69
2022/06/22 02:11:16;;;;;;;;;;;;;;;11.01;77.70;99603.37;106404;1270;108902;-70
2022/06/22 02:13:53;;;;;;;6.10;4.40;;;;;;;10.98;77.87;99601.77;106432;1270;96542;-70
2022/06/22 02:16:30;;;;;;;7.10;4.70;;;;;;;10.95;77.95;99607.14;106429;1270;96493;-70
2022/06/22 02:19:14;;;;;;;6.50;4.50;;;;;;;10.92;78.08;99613.34;106203;1270;138579;-70
2022/06/22 02:21:49;;;;;;;7.60;4.60;;;;;;;10.90;78.25;99614.95;106217;1271;109166;-69
2022/06/22 02:24:26;;;;;;;9.10;4.90;;;;;;;10.88;78.17;99616.98;107596;1270;139042;-70
2022/06/22 02:27:01;;;;;;;9.10;4.90;;;;;;;10.87;78.34;99619.47;106265;1270;96494;-69
2022/06/22 02:29:37;;;;;;;6.80;4.80;;;;;;;10.86;78.37;99616.36;106151;1270;138471;-69
2022/06/22 02:32:16;;;;;;;9.50;5.10;;;;;;;10.85;78.44;99624.73;106310;1270;111004;-70
2022/06/22 02:34:52;;;;;;;7.70;5.10;;;;;;;10.85;78.43;99631.71;106336;1270;108816;-70
2022/06/22 02:37:29;;;;;;;6.10;4.50;;;;;;;10.84;78.50;99633.67;106186;1270;138185;-70
2022/06/22 02:40:05;;;;;;;7.00;5.30;;;;;;;10.83;78.72;99633.91;106265;1270;96497;-70
2022/06/22 02:45:28;;;;;;;7.60;4.60;;;;;;;10.83;78.79;99642.56;106307;1270;110828;-70
2022/06/22 02:48:14;;;;;;;7.00;4.80;;;;;;;10.83;78.88;99640.67;106192;1270;138172;-70
2022/06/22 02:50:54;;;;;;;6.70;4.90;;;;;;;10.84;79.02;99644.29;106240;1270;109010;-70
2022/06/22 02:53:31;;;;;;;11.20;4.80;;;;;;;10.86;79.09;99642.29;106132;1268;138816;-70
2022/06/22 02:56:04;;;;;;;6.80;4.70;;;;;;;10.87;79.04;99642.24;106542;1270;96651;-70
2022/06/22 02:58:38;;;;;;;8.40;4.80;;;;;;;10.89;79.31;99642.33;106375;1270;111011;-70
2022/06/22 03:01:13;;;;;;;10.80;5.60;;;;;;;10.91;79.29;99648.66;107598;1270;138948;-70
2022/06/22 03:03:51;;;;;;;8.00;5.00;;;;;;;10.93;79.26;99648.26;106559;1268;108117;-71
2022/06/22 03:06:28;;;;;;;7.20;5.00;;;;;;;10.95;79.36;99651.99;107713;1269;138823;-70
2022/06/22 03:09:04;;;;;;;7.60;5.20;;;;;;;10.98;79.32;99660.04;107851;1270;94739;-70
2022/06/22 03:11:40;;;;;;;7.30;5.00;;;;;;;11.02;79.28;99658.66;107759;1270;138812;-70
2022/06/22 03:14:20;;;;;;;6.80;5.00;;;;;;;11.06;79.34;99650.63;106503;1270;108996;-69
2022/06/22 03:16:57;;;;;;;9.00;4.70;;;;;;;11.12;79.39;99644.29;106315;1270;108829;-70
2022/06/22 03:19:35;;;;;;;7.70;4.50;;;;;;;11.18;79.29;99640.02;106228;1270;138220;-70
2022/06/22 03:22:19;;;;;;;10.80;4.80;;;;;;;11.22;79.18;99637.73;107839;1270;94905;-70
2022/06/22 03:24:53;;;;;;;;;;;;;;;11.27;79.23;99633.52;107769;1270;138216;-70
2022/06/22 03:27:34;;;;;;;7.00;5.00;;;;;;;11.32;79.26;99632.27;107863;1270;108877;-70
2022/06/22 03:30:13;;;;;;;9.60;5.20;;;;;;;11.36;79.10;99632.59;106578;1270;138433;-70
2022/06/22 03:32:49;;;;;;;6.40;4.80;;;;;;;11.44;79.24;99634.64;107836;1270;94941;-70
2022/06/22 03:35:26;;;;;;;7.90;4.40;;;;;;;11.51;79.03;99635.74;107714;1270;138109;-70
2022/06/22 03:38:05;;;;;;;5.70;4.50;;;;;;;11.57;78.97;99631.29;107025;1269;110304;-70
2022/06/22 03:40:41;;;;;;;5.40;4.30;;;;;;;11.64;78.92;99629.77;106268;1270;108148;-68
2022/06/22 03:43:18;;;;;;;8.20;5.00;;;;;;;11.69;78.80;99632.84;106180;1270;138437;-69
2022/06/22 03:45:57;;;;;;;8.90;5.20;;;;;;;11.73;78.62;99643.09;106329;1270;96631;-69
2022/06/22 03:48:33;;;;;;;9.20;4.80;;;;;;;11.76;78.57;99650.07;107771;1270;138194;-70
2022/06/22 03:51:09;;;;;;;8.80;4.70;;;;;;;11.81;78.61;99653.71;107868;1269;109079;-71
2022/06/22 03:53:58;;;;;;;5.50;5.00;;;;;;;11.86;78.68;99655.77;107747;1269;139169;-71
2022/06/22 03:56:34;;;;;;;7.20;5.10;;;;;;;11.94;78.47;99648.75;106666;1270;107757;-70
2022/06/22 03:59:08;;;;;;;5.80;5.20;;;;;;;12.01;78.52;99655.00;107859;1270;94739;-71
2022/06/22 04:01:41;;;;;;;7.30;4.90;;;;;;;12.09;78.47;99654.50;107869;1269;94727;-70
2022/06/22 04:04:13;;;;;;;7.80;4.40;;;;;;;12.17;78.37;99657.59;107830;1270;111580;-70
2022/06/22 04:06:49;;;;;;;7.50;4.70;;;;;;;12.23;78.37;99660.23;107746;1270;139117;-71
2022/06/22 04:09:24;;;;;;;8.90;5.00;;;;;;;12.30;78.21;99666.00;107812;1270;109003;-71
2022/06/22 04:12:01;;;;;;;6.50;4.90;;;;;;;12.37;78.08;99669.84;107342;1270;138237;-70
2022/06/22 04:14:37;;;;;;;12.80;5.30;;;;;;;12.46;77.98;99672.23;106378;1270;96472;-70
2022/06/22 04:17:16;;;;;;;5.30;4.30;;;;;;;12.53;77.83;99673.23;106289;1270;111246;-70
2022/06/22 04:19:57;;;;;;;9.00;4.60;;;;;;;12.61;77.76;99678.95;106365;1270;109002;-71
2022/06/22 04:22:32;;;;;;;7.30;5.20;;;;;;;12.66;77.68;99673.64;106346;1270;108902;-72
2022/06/22 04:25:12;;;;;;;7.00;4.90;;;;;;;12.73;77.53;99668.79;106219;1270;138427;-72
2022/06/22 04:27:49;;;;;;;7.80;5.00;;;;;;;12.80;77.61;99666.17;106321;1270;97217;-71
2022/06/22 04:30:24;;;;;;;5.50;4.50;;;;;;;12.85;77.43;99665.36;107267;1270;138108;-71
2022/06/22 04:33:08;;;;;;;7.00;4.70;;;;;;;12.93;77.39;99670.74;106401;1270;108388;-71
2022/06/22 04:35:45;;;;;;;7.80;4.60;;;;;;;12.98;77.10;99670.48;106278;1270;139159;-71
2022/06/22 04:38:23;;;;;;;5.80;4.10;;;;;;;13.06;77.05;99669.52;106346;1270;96484;-71
2022/06/22 04:41:02;;;;;;;8.30;4.40;;;;;;;13.14;77.05;99657.60;107858;1268;94859;-72
2022/06/22 04:43:36;;;;;;;6.90;4.10;;;;;;;13.25;77.02;99656.54;107758;1269;139287;-72
2022/06/22 04:46:15;;;;;;;8.30;4.20;;;;;;;13.34;76.68;99658.19;107859;1270;107665;-71
2022/06/22 04:48:50;;;;;;;7.10;4.10;;;;;;;13.43;76.47;99665.02;107742;1270;139824;-72
2022/06/22 04:51:32;;;;;;;6.00;3.50;;;;;;;13.53;76.34;99670.61;107842;1269;94825;-71
2022/06/22 04:54:11;;;;;;;6.10;4.10;;;;;;;13.65;76.20;99669.98;107731;1270;139087;-70
2022/06/22 04:56:48;;;;;;;10.10;4.30;;;;;;;13.76;75.85;99671.58;106393;1270;111169;-69
2022/06/22 04:59:21;;;;;;;6.50;3.60;;;;;;;13.88;75.44;99669.56;106143;1270;246970;-70
2022/06/22 05:01:57;;;;;;;6.40;3.90;;;;;;;13.99;75.29;99669.67;106286;1270;109013;-71
2022/06/22 05:04:33;;;;;;;8.50;5.50;;;;;;;14.10;75.18;99666.41;107383;1269;94480;-72
2022/06/22 05:07:25;;;;;;;6.80;3.80;;;;;;;14.22;74.89;99669.42;106495;1270;138164;-71
2022/06/22 05:10:02;;;;;;;5.70;3.30;;;;;;;14.37;74.62;99677.66;106305;1270;111423;-71
2022/06/22 05:12:45;;;;;;;6.50;3.40;;;;;;;14.49;74.31;99679.63;107733;1270;139297;-71
2022/06/22 05:15:27;;;;;;;4.40;3.20;;;;;;;14.66;74.11;99683.02;107843;1270;108950;-71
2022/06/22 05:18:02;;;;;;;5.30;2.80;;;;;;;14.83;73.94;99681.17;107220;1270;139798;-70
2022/06/22 05:20:37;;;;;;;10.20;3.50;;;;;;;15.01;73.51;99678.64;106375;1270;96373;-70
2022/06/22 05:23:10;;;;;;;7.70;3.70;;;;;;;15.24;73.37;99678.55;106326;1270;111279;-71
2022/06/22 05:25:47;;;;;;;9.20;3.00;;;;;;;15.47;72.78;99677.80;106189;1271;108958;-69
2022/06/22 05:28:28;;;;;;;7.10;2.80;;;;;;;15.75;72.18;99679.42;106305;1270;108858;-69
2022/06/22 05:31:06;;;;;;;8.00;3.10;;;;;;;16.06;71.82;99677.84;107665;1270;139291;-70
2022/06/22 05:33:42;;;;;;;10.50;2.90;;;;;;;16.41;71.24;99676.94;107829;1270;95915;-71
2022/06/22 05:36:17;;;;;;;7.30;3.20;;;;;;;16.75;70.67;99674.34;107716;1270;138120;-71
2022/06/22 05:38:53;;;;;;;8.80;3.20;;;;;;;17.11;70.05;99674.08;106740;1270;108077;-71
2022/06/22 05:41:30;;;;;;;6.50;3.00;;;;;;;17.46;69.53;99673.21;106234;1270;139461;-70
2022/06/22 05:44:08;;;;;;;5.20;2.90;;;;;;;17.84;68.70;99676.59;106358;1270;96458;-70
2022/06/22 05:46:45;;;;;;;13.90;3.40;;;;;;;18.08;67.37;99676.95;107869;1270;94872;-71
2022/06/22 05:49:20;;;;;;;6.90;3.00;;;;;;;18.33;66.81;99683.78;107391;1268;138761;-70
2022/06/22 05:51:56;;;;;;;6.90;3.20;;;;;;;18.61;66.61;99687.13;107877;1269;108688;-71
2022/06/22 05:54:35;;;;;;;6.20;3.00;;;;;;;19.07;66.23;99685.10;107748;1270;138198;-71
2022/06/22 05:57:17;;;;;;;8.00;3.10;;;;;;;19.47;64.88;99677.10;107914;1268;94860;-71
2022/06/22 05:59:56;;;;;;;8.10;3.20;;;;;;;19.84;63.98;99679.27;106650;1269;137702;-70
2022/06/22 06:02:35;;;;;;;6.40;2.60;;;;;;;20.67;64.11;99679.42;106263;1271;110838;-70
2022/06/22 06:05:17;;;;;;;5.00;2.50;;;;;;;22.22;62.27;99677.70;107072;1270;108938;-69
2022/06/22 06:07:53;;;;;;;7.80;2.60;;;;;;;24.31;59.10;99665.64;107845;1270;109573;-70
2022/06/22 06:10:28;;;;;;;11.20;3.00;;;;;;;26.25;55.62;99661.05;107848;1270;94687;-70
2022/06/22 06:13:04;;;;;;;7.00;2.40;;;;;;;28.01;52.19;99655.52;107793;1270;138089;-71
2022/06/22 06:15:40;;;;;;;7.10;2.80;;;;;;;29.51;49.41;99654.94;107922;1269;111080;-71
2022/06/22 06:18:20;;;;;;;4.80;2.50;;;;;;;30.86;46.77;99653.49;106414;1269;139032;-67
2022/06/22 06:21:00;;;;;;;7.20;2.40;;;;;;;32.12;44.43;99650.83;106345;1270;108412;-66
2022/06/22 06:23:36;;;;;;;6.00;2.30;;;;;;;33.26;42.29;99653.97;106182;1270;137743;-66
2022/06/22 06:29:10;;;;;;;7.10;2.10;;;;;;;35.04;37.46;99651.41;107833;1270;111192;-67
2022/06/22 06:32:01;;;;;;;9.70;2.30;;;;;;;35.60;36.84;99649.14;106573;1270;109028;-66
2022/06/22 06:34:40;;;;;;;4.40;2.40;;;;;;;36.34;35.51;99649.49;106383;1270;108768;-68
2022/06/22 06:37:18;;;;;;;7.50;2.40;;;;;;;37.06;34.46;99654.60;107723;1270;137407;-67
2022/06/22 06:39:55;;;;;;;4.50;2.30;;;;;;;37.76;33.11;99647.75;107835;1269;94657;-67
2022/06/22 06:42:35;;;;;;;3.80;1.90;;;;;;;38.36;32.10;99646.44;107033;1270;137652;-67
2022/06/22 06:45:15;;;;;;;5.40;2.20;;;;;;;38.78;30.42;99644.13;106662;1270;109061;-67
2022/06/22 06:47:55;;;;;;;8.30;2.30;;;;;;;39.15;30.09;99644.89;106226;1270;138053;-67
2022/06/22 06:50:33;;;;;;;6.70;2.10;;;;;;;39.25;28.76;99640.84;107835;1268;94647;-67
2022/06/22 06:53:14;;;;;;;7.30;2.20;;;;;;;39.21;28.44;99638.77;106827;1268;95729;-67
2022/06/22 06:55:50;;;;;;;6.20;2.00;;;;;;;39.23;27.96;99639.39;106299;1270;110024;-67
2022/06/22 06:58:30;;;;;;;5.60;2.10;;;;;;;39.22;27.80;99636.21;106350;1270;108869;-66
2022/06/22 07:01:02;;;;;;;3.90;2.00;;;;;;;39.00;27.43;99636.52;106190;1270;137463;-66
2022/06/22 07:03:40;;;;;;;8.70;3.50;;;;;;;37.91;27.04;99640.59;106253;1270;96460;-67
2022/06/22 07:06:13;;;;;;;9.10;4.30;;;;;;;37.59;28.06;99644.55;106218;1270;137442;-66
2022/06/22 07:08:49;;;;;;;4.80;2.10;;;;;;;37.71;27.54;99647.77;106318;1270;111099;-66
2022/06/22 07:11:42;;;;;;;6.90;2.20;;;;;;;38.02;26.82;99639.80;107735;1270;138644;-67
2022/06/22 07:14:25;;;;;;;8.60;2.40;;;;;;;38.27;26.75;99645.13;107764;1270;108198;-66
2022/06/22 07:17:00;;;;;;;7.50;2.30;;;;;;;38.43;26.98;99646.89;107777;1270;94729;-67
2022/06/22 07:19:39;;;;;;;4.90;2.00;;;;;;;38.52;26.48;99650.82;107752;1270;137590;-66
2022/06/22 07:22:18;;;;;;;4.00;1.70;;;;;;;38.22;25.89;99650.17;107836;1270;109369;-67
2022/06/22 07:25:01;;;;;;;7.40;2.00;;;;;;;38.11;25.41;99645.27;107753;1270;138173;-66
2022/06/22 07:27:38;;;;;;;5.40;2.10;;;;;;;37.31;25.75;99642.05;107811;1270;108787;-67
2022/06/22 07:30:14;;;;;;;4.80;2.00;;;;;;;36.97;25.74;99642.04;106326;1270;138251;-66
2022/06/22 07:32:50;;;;;;;;;;;;;;;36.89;25.99;99638.98;106295;1270;96359;-68
2022/06/22 07:35:33;;;;;;;2.60;1.60;;;;;;;37.31;25.86;99647.14;106714;1270;124032;-66
2022/06/22 07:38:16;;;;;;;7.80;1.70;;;;;;;37.77;25.33;99642.71;107732;1270;106894;-67
2022/06/22 07:43:34;;;;;;;;;;;;;;;38.58;24.42;99642.69;107739;1270;138228;-67
2022/06/22 07:46:07;;;;;;;6.50;1.60;;;;;;;38.68;23.79;99641.63;107846;1270;94637;-67
2022/06/22 07:48:44;;;;;;;3.80;2.20;;;;;;;38.96;24.36;99648.29;107722;1270;137434;-67
2022/06/22 07:51:23;;;;;;;3.80;1.60;;;;;;;39.44;24.01;99640.83;107861;1270;109183;-67
2022/06/22 07:54:00;;;;;;;3.40;1.70;;;;;;;39.76;23.40;99647.15;107707;1270;140680;-67
2022/06/22 07:56:41;;;;;;;4.90;2.20;;;;;;;40.12;23.33;99650.10;107826;1270;94792;-66
2022/06/22 07:59:18;;;;;;;5.00;1.60;;;;;;;40.23;22.88;99643.88;106772;1271;137824;-65
2022/06/22 08:01:53;;;;;;;3.60;1.90;;;;;;;40.16;22.58;99645.08;106482;1264;111178;-66
2022/06/22 08:04:31;;;;;;;4.60;1.80;;;;;;;39.99;22.29;99642.91;106436;1270;108352;-67
2022/06/22 08:07:08;;;;;;;3.60;1.50;;;;;;;40.15;22.54;99640.08;106668;1270;138129;-66
2022/06/22 08:09:46;;;;;;;3.50;1.60;;;;;;;40.26;22.01;99641.17;106426;1269;96555;-66
2022/06/22 08:12:36;;;;;;;5.60;2.30;;;;;;;39.70;22.29;99645.98;106728;1270;137535;-66
2022/06/22 08:15:16;;;;;;;2.50;1.60;;;;;;;39.61;22.88;99643.96;106468;1270;110513;-66
2022/06/22 08:17:52;;;;;;;7.80;1.90;;;;;;;39.30;22.39;99655.02;106760;1270;137795;-66
2022/06/22 08:20:28;;;;;;;4.60;2.00;;;;;;;38.17;22.53;99650.30;107909;1270;107051;-72
2022/06/22 08:23:04;;;;;;;3.70;1.70;;;;;;;37.33;23.10;99650.23;107888;1268;95002;-72
2022/06/22 08:25:57;;;;;;;6.80;2.40;;;;;;;37.38;23.86;99648.95;106570;1270;96492;-71
2022/06/22 08:28:32;;;;;;;4.30;1.90;;;;;;;37.68;23.73;99648.20;106449;1270;110206;-70
2022/06/22 08:31:05;;;;;;;4.60;1.70;;;;;;;37.58;23.38;99648.84;106312;1270;137647;-70
2022/06/22 08:33:41;;;;;;;6.40;1.90;;;;;;;36.79;23.28;99653.08;106362;1270;108904;-71
2022/06/22 08:36:26;;;;;;;6.30;2.20;;;;;;;36.61;24.42;99645.05;106885;1270;139011;-71
2022/06/22 08:39:04;;;;;;;4.60;2.10;;;;;;;36.95;24.44;99647.12;107859;1269;94885;-71
2022/06/22 08:41:57;;;;;;;4.10;1.60;;;;;;;37.23;23.74;99644.89;107397;1270;137782;-72
2022/06/22 08:44:39;;;;;;;4.00;1.80;;;;;;;37.39;24.11;99636.89;107879;1269;108861;-71
2022/06/22 08:47:29;;;;;;;6.40;1.90;;;;;;;37.12;24.00;99633.94;107651;1270;110184;-71
2022/06/22 08:50:46;;;;;;;6.70;1.80;;;;;;;36.14;23.92;99639.14;106374;1270;96455;-71
2022/06/22 08:53:29;;;;;;;;;;;;;;;35.65;24.72;99645.15;107230;1276;138250;-71
2022/06/22 08:56:17;;;;;;;2.40;1.60;;;;;;;35.27;25.35;99647.79;107155;1276;109685;-71
2022/06/22 08:59:07;;;;;;;4.70;1.80;;;;;;;35.31;25.16;99655.65;105901;1278;108990;-71
2022/06/22 09:01:47;;;;;;;6.60;1.70;;;;;;;34.70;24.90;99655.91;105870;1279;107169;-71
2022/06/22 09:04:39;;;;;;;3.00;1.60;;;;;;;34.24;25.46;99653.73;105881;1276;96522;-71
2022/06/22 09:07:38;;;;;;;4.50;1.70;;;;;;;34.35;25.81;99657.94;106510;1279;139798;-70
2022/06/22 09:10:41;;;;;;;7.90;2.50;;;;;;;34.20;25.87;99658.77;105857;1278;111036;-71
2022/06/22 09:13:58;;;;;;;7.60;2.40;;;;;;;34.39;26.07;99656.38;105674;1278;137748;-71
2022/06/22 09:16:46;;;;;;;4.90;1.80;;;;;;;34.71;26.13;99659.04;107299;1276;108963;-71
2022/06/22 09:19:43;;;;;;;6.10;2.10;;;;;;;34.01;25.79;99654.56;106917;1278;138046;-71
2022/06/22 09:22:19;;;;;;;6.80;2.20;;;;;;;32.75;26.41;99662.70;105794;1279;96645;-71
2022/06/22 09:24:59;;;;;;;;;;;;;;;32.26;27.40;99662.13;107097;1278;138567;-71
2022/06/22 09:27:42;;;;;;;6.30;1.90;;;;;;;32.23;27.52;99665.36;106329;1279;109075;-71
2022/06/22 09:30:31;;;;;;;7.40;2.20;;;;;;;31.60;27.60;99668.14;105825;1273;137909;-70
2022/06/22 09:33:25;;;;;;;5.30;2.10;;;;;;;30.73;28.13;99676.15;106056;1271;96505;-71
2022/06/22 09:36:22;;;;;;;6.80;2.10;;;;;;;30.44;28.72;99677.35;106051;1273;137570;-71
2022/06/22 09:39:28;;;;;;;4.30;1.40;;;;;;;30.63;28.86;99675.79;106075;1271;111053;-71
2022/06/22 09:42:16;;;;;;;6.20;1.70;;;;;;;31.07;29.53;99670.42;106120;1273;137887;-70
2022/06/22 09:45:13;;;;;;;6.00;2.10;;;;;;;31.20;29.60;99664.41;106152;1273;108879;-70
2022/06/22 09:48:12;;;;;;;4.40;2.00;;;;;;;31.20;29.04;99661.16;105935;1273;137769;-71
2022/06/22 09:51:14;;;;;;;7.80;2.30;;;;;;;31.15;29.15;99662.36;106153;1273;96473;-72
2022/06/22 09:57:33;;;;;;;3.00;1.50;;;;;;;31.84;29.41;99670.48;106133;1272;109121;-71
2022/06/22 10:00:10;;;;;;;2.70;1.60;;;;;;;32.37;28.80;99666.07;105944;1273;137848;-71
2022/06/22 10:03:31;;;;;;;4.30;1.80;;;;;;;32.80;28.84;99664.17;107738;1271;95220;-72
2022/06/22 10:06:35;;;;;;;3.60;1.60;;;;;;;32.66;27.72;99670.70;107718;1270;138559;-71
2022/06/22 10:09:25;;;;;;;4.10;1.70;;;;;;;32.58;27.46;99666.50;107056;1271;111070;-70
2022/06/22 10:12:13;;;;;;;3.60;1.60;;;;;;;32.68;27.61;99669.95;106138;1270;138751;-71
2022/06/22 10:15:09;;;;;;;3.40;1.60;;;;;;;32.89;27.38;99671.51;107418;1270;108525;-71
2022/06/22 10:18:00;;;;;;;2.30;1.70;;;;;;;32.89;27.22;99671.08;106078;1270;138481;-70
2022/06/22 10:20:45;;;;;;;2.90;1.60;;;;;;;32.62;26.65;99673.86;106311;1270;96511;-71
2022/06/22 10:23:34;;;;;;;5.60;1.60;;;;;;;32.49;26.81;99667.52;106166;1270;137655;-69
2022/06/22 10:26:23;;;;;;;4.20;1.60;;;;;;;32.69;27.18;99667.98;107845;1270;107967;-70
2022/06/22 10:29:13;;;;;;;3.90;1.90;;;;;;;32.85;27.06;99668.61;107809;1270;108885;-70
2022/06/22 10:31:59;;;;;;;2.50;1.20;;;;;;;32.84;26.68;99674.34;107059;1270;96513;-72
2022/06/22 10:34:49;;;;;;;5.30;1.40;;;;;;;32.81;26.49;99671.14;106306;1270;96678;-73
2022/06/22 10:37:48;;;;;;;5.80;1.90;;;;;;;32.47;26.03;99669.30;106167;1270;137420;-72
2022/06/22 10:46:45;;;;;;;4.00;1.40;;;;;;;31.82;27.17;99669.86;106242;1270;96504;-71
2022/06/22 10:49:48;;;;;;;6.60;1.90;;;;;;;31.56;26.79;99673.64;106138;1270;137353;-72
2022/06/22 10:52:31;;;;;;;4.50;1.80;;;;;;;31.35;27.09;99668.31;106203;1270;111409;-71
2022/06/22 10:55:31;;;;;;;6.20;1.80;;;;;;;31.23;27.12;99668.40;106171;1270;138277;-72
2022/06/22 10:58:32;;;;;;;5.80;1.90;;;;;;;30.95;27.59;99667.13;106138;1271;112264;-70
2022/06/22 11:01:42;;;;;;;2.50;1.60;;;;;;;30.67;27.41;99669.73;107612;1271;138030;-72
2022/06/22 11:04:55;;;;;;;3.10;1.60;;;;;;;30.41;27.13;99669.61;107773;1270;94454;-73
2022/06/22 11:07:53;;;;;;;5.10;1.60;;;;;;;30.24;27.26;99666.63;107074;1270;137653;-70
2022/06/22 11:10:44;;;;;;;4.90;1.60;;;;;;;30.07;28.13;99666.60;107847;1270;109445;-71
2022/06/22 11:13:46;;;;;;;2.70;1.30;;;;;;;29.84;27.93;99665.83;106592;1270;137744;-71
2022/06/22 11:16:38;;;;;;;4.40;1.60;;;;;;;29.61;28.40;99656.85;106986;1270;95272;-62
2022/06/22 11:19:31;;;;;;;4.30;1.60;;;;;;;29.42;28.73;99659.63;107652;1271;137539;-64
2022/06/22 11:22:17;;;;;;;6.80;2.20;;;;;;;29.28;28.83;99660.52;107826;1270;110264;-65
2022/06/22 11:25:15;;;;;;;4.10;1.80;;;;;;;29.24;29.54;99657.19;107378;1270;139117;-65
2022/06/22 11:30:56;;;;;;;2.40;1.50;;;;;;;29.11;28.99;99659.41;106972;1270;124055;-67
2022/06/22 11:33:56;;;;;;;3.30;1.50;;;;;;;29.08;29.38;99658.77;106420;1270;97279;-67
2022/06/22 11:36:42;;;;;;;3.10;1.50;;;;;;;29.11;29.30;99660.85;107609;1270;138054;-67
2022/06/22 11:39:50;;;;;;;5.60;1.70;;;;;;;29.09;29.31;99655.36;106324;1270;108940;-66
2022/06/22 11:42:39;;;;;;;1.90;1.30;;;;;;;29.10;29.47;99653.14;106183;1270;137716;-67
2022/06/22 11:45:51;;;;;;;3.40;1.50;;;;;;;28.97;28.40;99650.05;107466;1271;95271;-67
2022/06/22 11:49:00;;;;;;;2.70;1.30;;;;;;;28.92;28.75;99647.62;107754;1270;138133;-67
2022/06/22 11:51:46;;;;;;;3.20;1.30;;;;;;;28.92;29.03;99647.48;107814;1271;110042;-67
2022/06/22 11:54:47;;;;;;;4.50;1.60;;;;;;;28.75;28.80;99655.88;107317;1270;137973;-67
2022/06/22 11:57:46;;;;;;;2.90;1.80;;;;;;;28.58;28.61;99655.35;106377;1270;109055;-66
2022/06/22 12:00:28;;;;;;;4.70;2.30;;;;;;;28.51;28.61;99654.79;106034;1271;137594;-66
2022/06/22 12:03:24;;;;;;;3.60;2.00;;;;;;;28.41;28.98;99655.90;107792;1270;94502;-67
2022/06/22 12:06:28;;;;;;;6.50;2.20;;;;;;;28.28;28.99;99656.17;107713;1270;139905;-68
2022/06/22 12:09:23;;;;;;;3.40;1.90;;;;;;;27.99;29.00;99663.42;107770;1271;111158;-65
2022/06/22 12:12:34;;;;;;;5.70;1.60;;;;;;;27.72;29.91;99668.81;107667;1271;137678;-66
2022/06/22 12:15:26;;;;;;;3.20;1.40;;;;;;;27.63;30.33;99664.63;107799;1270;95582;-70
2022/06/22 12:18:16;;;;;;;3.20;1.60;;;;;;;27.69;30.62;99665.24;107215;1270;137373;-69
2022/06/22 12:21:06;;;;;;;3.30;1.80;;;;;;;27.74;30.97;99661.96;107844;1270;110054;-69
2022/06/22 12:23:45;;;;;;;2.80;1.80;;;;;;;27.66;31.06;99660.95;107750;1270;138784;-68
2022/06/22 12:26:30;;;;;;;3.10;1.80;;;;;;;27.47;30.86;99656.98;106519;1270;108840;-69
2022/06/22 12:29:20;;;;;;;6.60;2.20;;;;;;;27.29;30.99;99665.59;107796;1270;94817;-69
2022/06/22 12:31:56;;;;;;;3.70;2.00;;;;;;;27.17;31.27;99668.70;106984;1270;96515;-66
2022/06/22 12:34:50;;;;;;;3.90;2.00;;;;;;;26.93;31.38;99662.80;106402;1270;112392;-67
2022/06/22 12:37:27;;;;;;;3.70;2.00;;;;;;;26.78;31.47;99665.73;106158;1270;137664;-66
2022/06/22 12:40:06;;;;;;;3.60;1.80;;;;;;;26.77;31.58;99668.67;107221;1270;108666;-66
2022/06/22 12:43:00;;;;;;;3.80;1.90;;;;;;;26.63;31.40;99668.09;107753;1270;137443;-67
2022/06/22 12:45:51;;;;;;;3.60;1.90;;;;;;;26.30;31.63;99664.85;107860;1270;95495;-67
2022/06/22 12:48:59;;;;;;;4.30;1.90;;;;;;;26.15;32.48;99665.13;107746;1270;137552;-67
2022/06/22 12:51:42;;;;;;;6.10;2.10;;;;;;;26.25;32.66;99665.33;107760;1270;108978;-68
2022/06/22 12:54:20;;;;;;;2.60;1.70;;;;;;;26.39;33.15;99660.27;106115;1270;138758;-67